Time;durP1;ratioP1;P1;durP2;ratioP2;P2;SDS_P1;SDS_P2;PMS_P1;PMS_P2;Temp;Humidity;BMP_temperature;BMP_pressure;BME280_temperature;BME280_humidity;BME280_pressure;Samples;Min_cycle;Max_cycle;Signal;HPM_P1;HPM_P2
2021/09/04 00:00:36;;;;;;;10.3;8.4;;;;;;;10.72;85.50879;95327.84;;;;
2021/09/04 00:01:37;;;;;;;10.3;8.4;;;;;;;10.72;85.50879;95327.84;;;;
2021/09/04 00:02:37;;;;;;;10.9;8.25;;;;;;;10.55;85.72266;95325.02;;;;
2021/09/04 00:03:38;;;;;;;10.9;8.25;;;;;;;10.55;85.72266;95325.02;;;;
2021/09/04 00:04:38;;;;;;;10.9;8.25;;;;;;;10.55;85.72266;95325.02;;;;
2021/09/04 00:05:39;;;;;;;10.9;8.25;;;;;;;10.55;85.72266;95325.02;;;;
2021/09/04 00:06:40;;;;;;;10.9;8.25;;;;;;;10.55;85.72266;95325.02;;;;
2021/09/04 00:07:40;;;;;;;10.9;8.25;;;;;;;10.55;85.72266;95325.02;;;;
2021/09/04 00:08:42;;;;;;;10.9;8.25;;;;;;;10.55;85.72266;95325.02;;;;
2021/09/04 00:09:43;;;;;;;10.9;8.25;;;;;;;10.55;85.72266;95325.02;;;;
2021/09/04 00:10:43;;;;;;;10.9;8.25;;;;;;;10.55;85.72266;95325.02;;;;
2021/09/04 00:11:44;;;;;;;10.9;8.25;;;;;;;10.55;85.72266;95325.02;;;;
2021/09/04 00:12:44;;;;;;;9.250001;8.199999;;;;;;;10.45;85.88574;95317.08;;;;
2021/09/04 00:13:45;;;;;;;9.250001;8.199999;;;;;;;10.45;85.88574;95317.08;;;;
2021/09/04 00:14:46;;;;;;;9.250001;8.199999;;;;;;;10.45;85.88574;95317.08;;;;
2021/09/04 00:15:46;;;;;;;9.250001;8.199999;;;;;;;10.45;85.88574;95317.08;;;;
2021/09/04 00:16:47;;;;;;;9.250001;8.199999;;;;;;;10.45;85.88574;95317.08;;;;
2021/09/04 00:17:47;;;;;;;9.250001;8.199999;;;;;;;10.45;85.88574;95317.08;;;;
2021/09/04 00:18:48;;;;;;;9.250001;8.199999;;;;;;;10.45;85.88574;95317.08;;;;
2021/09/04 00:19:48;;;;;;;9.250001;8.199999;;;;;;;10.45;85.88574;95317.08;;;;
2021/09/04 00:20:49;;;;;;;9.250001;8.199999;;;;;;;10.45;85.88574;95317.08;;;;
2021/09/04 00:21:50;;;;;;;9.250001;8.199999;;;;;;;10.45;85.88574;95317.08;;;;
2021/09/04 00:22:50;;;;;;;9.250001;8.199999;;;;;;;10.45;85.88574;95317.08;;;;
2021/09/04 00:23:51;;;;;;;9.399999;8.299998;;;;;;;10.3;86.0459;95315.5;;;;
2021/09/04 00:24:51;;;;;;;9.399999;8.299998;;;;;;;10.3;86.0459;95315.5;;;;
2021/09/04 00:25:52;;;;;;;9.399999;8.299998;;;;;;;10.3;86.0459;95315.5;;;;
2021/09/04 00:26:53;;;;;;;9.399999;8.299998;;;;;;;10.3;86.0459;95315.5;;;;
2021/09/04 00:27:53;;;;;;;9.399999;8.299998;;;;;;;10.3;86.0459;95315.5;;;;
2021/09/04 00:28:54;;;;;;;9.399999;8.299998;;;;;;;10.3;86.0459;95315.5;;;;
2021/09/04 00:29:54;;;;;;;9.399999;8.299998;;;;;;;10.3;86.0459;95315.5;;;;
2021/09/04 00:30:55;;;;;;;9.399999;8.299998;;;;;;;10.3;86.0459;95315.5;;;;
2021/09/04 00:31:56;;;;;;;9.399999;8.299998;;;;;;;10.3;86.0459;95315.5;;;;
2021/09/04 00:32:56;;;;;;;9.399999;8.299998;;;;;;;10.3;86.0459;95315.5;;;;
2021/09/04 00:33:57;;;;;;;9.8;7.849999;;;;;;;10.14;86.31445;95299.48;;;;
2021/09/04 00:34:57;;;;;;;9.8;7.849999;;;;;;;10.14;86.31445;95299.48;;;;
2021/09/04 00:35:58;;;;;;;9.8;7.849999;;;;;;;10.14;86.31445;95299.48;;;;
2021/09/04 00:36:59;;;;;;;9.8;7.849999;;;;;;;10.14;86.31445;95299.48;;;;
2021/09/04 00:37:59;;;;;;;9.8;7.849999;;;;;;;10.14;86.31445;95299.48;;;;
2021/09/04 00:39:00;;;;;;;9.8;7.849999;;;;;;;10.14;86.31445;95299.48;;;;
2021/09/04 00:40:00;;;;;;;9.8;7.849999;;;;;;;10.14;86.31445;95299.48;;;;
2021/09/04 00:41:02;;;;;;;9.8;7.849999;;;;;;;10.14;86.31445;95299.48;;;;
2021/09/04 00:42:03;;;;;;;9.8;7.849999;;;;;;;10.14;86.31445;95299.48;;;;
2021/09/04 00:43:04;;;;;;;9.8;7.849999;;;;;;;10.14;86.31445;95299.48;;;;
2021/09/04 00:44:04;;;;;;;9.8;7.849999;;;;;;;10.14;86.31445;95299.48;;;;
2021/09/04 00:45:06;;;;;;;10.55;8.35;;;;;;;10.01;86.47949;95300.48;;;;
2021/09/04 00:46:08;;;;;;;10.55;8.35;;;;;;;10.01;86.47949;95300.48;;;;
2021/09/04 00:47:11;;;;;;;10.55;8.35;;;;;;;10.01;86.47949;95300.48;;;;
2021/09/04 00:48:11;;;;;;;10.55;8.35;;;;;;;10.01;86.47949;95300.48;;;;
2021/09/04 00:49:12;;;;;;;10.55;8.35;;;;;;;10.01;86.47949;95300.48;;;;
2021/09/04 00:50:14;;;;;;;10.55;8.35;;;;;;;10.01;86.47949;95300.48;;;;
2021/09/04 00:51:14;;;;;;;10.55;8.35;;;;;;;10.01;86.47949;95300.48;;;;
2021/09/04 00:52:16;;;;;;;10.55;8.35;;;;;;;10.01;86.47949;95300.48;;;;
2021/09/04 00:53:16;;;;;;;10.55;8.35;;;;;;;10.01;86.47949;95300.48;;;;
2021/09/04 00:54:17;;;;;;;10.55;8.35;;;;;;;10.01;86.47949;95300.48;;;;
2021/09/04 00:55:17;;;;;;;10.7;8.299999;;;;;;;9.9;86.66016;95299.92;;;;
2021/09/04 00:56:19;;;;;;;10.7;8.299999;;;;;;;9.9;86.66016;95299.92;;;;
2021/09/04 00:57:20;;;;;;;10.7;8.299999;;;;;;;9.9;86.66016;95299.92;;;;
2021/09/04 00:58:21;;;;;;;10.7;8.299999;;;;;;;9.9;86.66016;95299.92;;;;
2021/09/04 00:59:22;;;;;;;10.7;8.299999;;;;;;;9.9;86.66016;95299.92;;;;
2021/09/04 01:00:22;;;;;;;10.7;8.299999;;;;;;;9.9;86.66016;95299.92;;;;
2021/09/04 01:01:23;;;;;;;10.7;8.299999;;;;;;;9.9;86.66016;95299.92;;;;
2021/09/04 01:02:24;;;;;;;10.7;8.299999;;;;;;;9.9;86.66016;95299.92;;;;
2021/09/04 01:03:24;;;;;;;10.7;8.299999;;;;;;;9.9;86.66016;95299.92;;;;
2021/09/04 01:04:25;;;;;;;10.7;8.299999;;;;;;;9.9;86.66016;95299.92;;;;
2021/09/04 01:05:25;;;;;;;10.7;8.299999;;;;;;;9.9;86.66016;95299.92;;;;
2021/09/04 01:06:26;;;;;;;11;8.550001;;;;;;;9.86;86.67383;95305.47;;;;
2021/09/04 01:07:27;;;;;;;11;8.550001;;;;;;;9.86;86.67383;95305.47;;;;
2021/09/04 01:08:28;;;;;;;11;8.550001;;;;;;;9.86;86.67383;95305.47;;;;
2021/09/04 01:09:29;;;;;;;11;8.550001;;;;;;;9.86;86.67383;95305.47;;;;
2021/09/04 01:10:30;;;;;;;11;8.550001;;;;;;;9.86;86.67383;95305.47;;;;
2021/09/04 01:11:31;;;;;;;11;8.550001;;;;;;;9.86;86.67383;95305.47;;;;
2021/09/04 01:12:32;;;;;;;11;8.550001;;;;;;;9.86;86.67383;95305.47;;;;
2021/09/04 01:13:33;;;;;;;11;8.550001;;;;;;;9.86;86.67383;95305.47;;;;
2021/09/04 01:14:34;;;;;;;11;8.550001;;;;;;;9.86;86.67383;95305.47;;;;
2021/09/04 01:15:36;;;;;;;11;8.550001;;;;;;;9.86;86.67383;95305.47;;;;
2021/09/04 01:16:36;;;;;;;11.7;8.200001;;;;;;;9.73;86.7959;95297.19;;;;
2021/09/04 01:17:39;;;;;;;11.7;8.200001;;;;;;;9.73;86.7959;95297.19;;;;
2021/09/04 01:18:39;;;;;;;11.7;8.200001;;;;;;;9.73;86.7959;95297.19;;;;
2021/09/04 01:19:40;;;;;;;11.7;8.200001;;;;;;;9.73;86.7959;95297.19;;;;
2021/09/04 01:20:40;;;;;;;11.7;8.200001;;;;;;;9.73;86.7959;95297.19;;;;
2021/09/04 01:21:41;;;;;;;11.7;8.200001;;;;;;;9.73;86.7959;95297.19;;;;
2021/09/04 01:22:42;;;;;;;11.7;8.200001;;;;;;;9.73;86.7959;95297.19;;;;
2021/09/04 01:23:42;;;;;;;11.7;8.200001;;;;;;;9.73;86.7959;95297.19;;;;
2021/09/04 01:24:43;;;;;;;11.7;8.200001;;;;;;;9.73;86.7959;95297.19;;;;
2021/09/04 01:25:48;;;;;;;11.7;8.200001;;;;;;;9.73;86.7959;95297.19;;;;
2021/09/04 01:26:53;;;;;;;11.7;8.200001;;;;;;;9.73;86.7959;95297.19;;;;
2021/09/04 01:27:54;;;;;;;9.999999;7.700001;;;;;;;9.6;87.15332;95301.01;;;;
2021/09/04 01:28:56;;;;;;;9.999999;7.700001;;;;;;;9.6;87.15332;95301.01;;;;
2021/09/04 01:29:57;;;;;;;9.999999;7.700001;;;;;;;9.6;87.15332;95301.01;;;;
2021/09/04 01:30:57;;;;;;;9.999999;7.700001;;;;;;;9.6;87.15332;95301.01;;;;
2021/09/04 01:31:58;;;;;;;9.999999;7.700001;;;;;;;9.6;87.15332;95301.01;;;;
2021/09/04 01:32:59;;;;;;;9.999999;7.700001;;;;;;;9.6;87.15332;95301.01;;;;
2021/09/04 01:33:59;;;;;;;9.999999;7.700001;;;;;;;9.6;87.15332;95301.01;;;;
2021/09/04 01:35:00;;;;;;;9.999999;7.700001;;;;;;;9.6;87.15332;95301.01;;;;
2021/09/04 01:36:04;;;;;;;9.999999;7.700001;;;;;;;9.6;87.15332;95301.01;;;;
2021/09/04 01:37:04;;;;;;;9.999999;7.700001;;;;;;;9.6;87.15332;95301.01;;;;
2021/09/04 01:38:05;;;;;;;10;7.9;;;;;;;9.48;87.30078;95291.52;;;;
2021/09/04 01:39:06;;;;;;;10;7.9;;;;;;;9.48;87.30078;95291.52;;;;
2021/09/04 01:40:08;;;;;;;10;7.9;;;;;;;9.48;87.30078;95291.52;;;;
2021/09/04 01:41:10;;;;;;;10;7.9;;;;;;;9.48;87.30078;95291.52;;;;
2021/09/04 01:42:10;;;;;;;10;7.9;;;;;;;9.48;87.30078;95291.52;;;;
2021/09/04 01:43:11;;;;;;;10;7.9;;;;;;;9.48;87.30078;95291.52;;;;
2021/09/04 01:44:11;;;;;;;10;7.9;;;;;;;9.48;87.30078;95291.52;;;;
2021/09/04 01:45:12;;;;;;;10;7.9;;;;;;;9.48;87.30078;95291.52;;;;
2021/09/04 01:46:13;;;;;;;10;7.9;;;;;;;9.48;87.30078;95291.52;;;;
2021/09/04 01:47:14;;;;;;;10;7.9;;;;;;;9.48;87.30078;95291.52;;;;
2021/09/04 01:48:15;;;;;;;10;7.9;;;;;;;9.48;87.30078;95291.52;;;;
2021/09/04 01:49:15;;;;;;;11;7.7;;;;;;;9.38;87.4502;95284.94;;;;
2021/09/04 01:50:16;;;;;;;11;7.7;;;;;;;9.38;87.4502;95284.94;;;;
2021/09/04 01:51:17;;;;;;;11;7.7;;;;;;;9.38;87.4502;95284.94;;;;
2021/09/04 01:52:17;;;;;;;11;7.7;;;;;;;9.38;87.4502;95284.94;;;;
2021/09/04 01:53:18;;;;;;;11;7.7;;;;;;;9.38;87.4502;95284.94;;;;
2021/09/04 01:54:19;;;;;;;11;7.7;;;;;;;9.38;87.4502;95284.94;;;;
2021/09/04 01:55:19;;;;;;;11;7.7;;;;;;;9.38;87.4502;95284.94;;;;
2021/09/04 01:56:21;;;;;;;11;7.7;;;;;;;9.38;87.4502;95284.94;;;;
2021/09/04 01:57:21;;;;;;;11;7.7;;;;;;;9.38;87.4502;95284.94;;;;
2021/09/04 01:58:22;;;;;;;11;7.7;;;;;;;9.38;87.4502;95284.94;;;;
2021/09/04 01:59:22;;;;;;;9.649999;8;;;;;;;9.37;87.49023;95290.56;;;;
2021/09/04 02:00:23;;;;;;;9.649999;8;;;;;;;9.37;87.49023;95290.56;;;;
2021/09/04 02:01:23;;;;;;;9.649999;8;;;;;;;9.37;87.49023;95290.56;;;;
2021/09/04 02:02:24;;;;;;;9.649999;8;;;;;;;9.37;87.49023;95290.56;;;;
2021/09/04 02:03:24;;;;;;;9.649999;8;;;;;;;9.37;87.49023;95290.56;;;;
2021/09/04 02:04:26;;;;;;;9.649999;8;;;;;;;9.37;87.49023;95290.56;;;;
2021/09/04 02:05:26;;;;;;;9.649999;8;;;;;;;9.37;87.49023;95290.56;;;;
2021/09/04 02:06:29;;;;;;;9.649999;8;;;;;;;9.37;87.49023;95290.56;;;;
2021/09/04 02:07:30;;;;;;;9.649999;8;;;;;;;9.37;87.49023;95290.56;;;;
2021/09/04 02:08:30;;;;;;;9.649999;8;;;;;;;9.37;87.49023;95290.56;;;;
2021/09/04 02:09:31;;;;;;;9.649999;8;;;;;;;9.37;87.49023;95290.56;;;;
2021/09/04 02:10:32;;;;;;;10.4;7.750001;;;;;;;9.27;87.60645;95288.5;;;;
2021/09/04 02:11:33;;;;;;;10.4;7.750001;;;;;;;9.27;87.60645;95288.5;;;;
2021/09/04 02:12:33;;;;;;;10.4;7.750001;;;;;;;9.27;87.60645;95288.5;;;;
2021/09/04 02:13:34;;;;;;;10.4;7.750001;;;;;;;9.27;87.60645;95288.5;;;;
2021/09/04 02:14:35;;;;;;;10.4;7.750001;;;;;;;9.27;87.60645;95288.5;;;;
2021/09/04 02:15:35;;;;;;;10.4;7.750001;;;;;;;9.27;87.60645;95288.5;;;;
2021/09/04 02:16:36;;;;;;;10.4;7.750001;;;;;;;9.27;87.60645;95288.5;;;;
2021/09/04 02:17:36;;;;;;;10.4;7.750001;;;;;;;9.27;87.60645;95288.5;;;;
2021/09/04 02:18:37;;;;;;;10.4;7.750001;;;;;;;9.27;87.60645;95288.5;;;;
2021/09/04 02:19:38;;;;;;;10.4;7.750001;;;;;;;9.27;87.60645;95288.5;;;;
2021/09/04 02:20:38;;;;;;;10.1;8.25;;;;;;;9.16;87.89551;95289.17;;;;
2021/09/04 02:21:39;;;;;;;10.1;8.25;;;;;;;9.16;87.89551;95289.17;;;;
2021/09/04 02:22:39;;;;;;;10.1;8.25;;;;;;;9.16;87.89551;95289.17;;;;
2021/09/04 02:23:41;;;;;;;10.1;8.25;;;;;;;9.16;87.89551;95289.17;;;;
2021/09/04 02:24:41;;;;;;;10.1;8.25;;;;;;;9.16;87.89551;95289.17;;;;
2021/09/04 02:25:42;;;;;;;10.1;8.25;;;;;;;9.16;87.89551;95289.17;;;;
2021/09/04 02:26:43;;;;;;;10.1;8.25;;;;;;;9.16;87.89551;95289.17;;;;
2021/09/04 02:27:43;;;;;;;10.1;8.25;;;;;;;9.16;87.89551;95289.17;;;;
2021/09/04 02:28:44;;;;;;;10.1;8.25;;;;;;;9.16;87.89551;95289.17;;;;
2021/09/04 02:29:45;;;;;;;10.1;8.25;;;;;;;9.16;87.89551;95289.17;;;;
2021/09/04 02:30:45;;;;;;;10.1;8.25;;;;;;;9.16;87.89551;95289.17;;;;
2021/09/04 02:31:46;;;;;;;9.35;7.95;;;;;;;9.08;88.14355;95273.33;;;;
2021/09/04 02:32:46;;;;;;;9.35;7.95;;;;;;;9.08;88.14355;95273.33;;;;
2021/09/04 02:33:47;;;;;;;9.35;7.95;;;;;;;9.08;88.14355;95273.33;;;;
2021/09/04 02:34:47;;;;;;;9.35;7.95;;;;;;;9.08;88.14355;95273.33;;;;
2021/09/04 02:35:48;;;;;;;9.35;7.95;;;;;;;9.08;88.14355;95273.33;;;;
2021/09/04 02:36:48;;;;;;;9.35;7.95;;;;;;;9.08;88.14355;95273.33;;;;
2021/09/04 02:37:49;;;;;;;9.35;7.95;;;;;;;9.08;88.14355;95273.33;;;;
2021/09/04 02:38:49;;;;;;;9.35;7.95;;;;;;;9.08;88.14355;95273.33;;;;
2021/09/04 02:39:51;;;;;;;9.35;7.95;;;;;;;9.08;88.14355;95273.33;;;;
2021/09/04 02:40:52;;;;;;;9.35;7.95;;;;;;;9.08;88.14355;95273.33;;;;
2021/09/04 02:41:52;;;;;;;8.050001;7.2;;;;;;;8.99;88.3584;95272;;;;
2021/09/04 02:42:53;;;;;;;8.050001;7.2;;;;;;;8.99;88.3584;95272;;;;
2021/09/04 02:43:53;;;;;;;8.050001;7.2;;;;;;;8.99;88.3584;95272;;;;
2021/09/04 02:44:54;;;;;;;8.050001;7.2;;;;;;;8.99;88.3584;95272;;;;
2021/09/04 02:45:54;;;;;;;8.050001;7.2;;;;;;;8.99;88.3584;95272;;;;
2021/09/04 02:46:55;;;;;;;8.050001;7.2;;;;;;;8.99;88.3584;95272;;;;
2021/09/04 02:47:55;;;;;;;8.050001;7.2;;;;;;;8.99;88.3584;95272;;;;
2021/09/04 02:48:56;;;;;;;8.050001;7.2;;;;;;;8.99;88.3584;95272;;;;
2021/09/04 02:49:56;;;;;;;8.050001;7.2;;;;;;;8.99;88.3584;95272;;;;
2021/09/04 02:50:57;;;;;;;8.050001;7.2;;;;;;;8.99;88.3584;95272;;;;
2021/09/04 02:51:58;;;;;;;8.050001;7.2;;;;;;;8.99;88.3584;95272;;;;
2021/09/04 02:52:58;;;;;;;10.3;7.600001;;;;;;;8.94;88.5293;95259.71;;;;
2021/09/04 02:53:59;;;;;;;10.3;7.600001;;;;;;;8.94;88.5293;95259.71;;;;
2021/09/04 02:54:59;;;;;;;10.3;7.600001;;;;;;;8.94;88.5293;95259.71;;;;
2021/09/04 02:56:00;;;;;;;10.3;7.600001;;;;;;;8.94;88.5293;95259.71;;;;
2021/09/04 02:57:00;;;;;;;10.3;7.600001;;;;;;;8.94;88.5293;95259.71;;;;
2021/09/04 02:58:01;;;;;;;10.3;7.600001;;;;;;;8.94;88.5293;95259.71;;;;
2021/09/04 02:59:01;;;;;;;10.3;7.600001;;;;;;;8.94;88.5293;95259.71;;;;
2021/09/04 03:00:02;;;;;;;10.3;7.600001;;;;;;;8.94;88.5293;95259.71;;;;
2021/09/04 03:01:04;;;;;;;10.3;7.600001;;;;;;;8.94;88.5293;95259.71;;;;
2021/09/04 03:02:05;;;;;;;10.3;7.600001;;;;;;;8.94;88.5293;95259.71;;;;
2021/09/04 03:03:05;;;;;;;10.3;7.600001;;;;;;;8.94;88.5293;95259.71;;;;
2021/09/04 03:04:06;;;;;;;10.75;7.950001;;;;;;;8.86;88.62012;95256;;;;
2021/09/04 03:05:06;;;;;;;10.75;7.950001;;;;;;;8.86;88.62012;95256;;;;
2021/09/04 03:06:08;;;;;;;10.75;7.950001;;;;;;;8.86;88.62012;95256;;;;
2021/09/04 03:07:08;;;;;;;10.75;7.950001;;;;;;;8.86;88.62012;95256;;;;
2021/09/04 03:08:09;;;;;;;10.75;7.950001;;;;;;;8.86;88.62012;95256;;;;
2021/09/04 03:09:09;;;;;;;10.75;7.950001;;;;;;;8.86;88.62012;95256;;;;
2021/09/04 03:10:10;;;;;;;10.75;7.950001;;;;;;;8.86;88.62012;95256;;;;
2021/09/04 03:11:11;;;;;;;10.75;7.950001;;;;;;;8.86;88.62012;95256;;;;
2021/09/04 03:12:12;;;;;;;10.75;7.950001;;;;;;;8.86;88.62012;95256;;;;
2021/09/04 03:13:12;;;;;;;10.75;7.950001;;;;;;;8.86;88.62012;95256;;;;
2021/09/04 03:14:13;;;;;;;8.899999;7.05;;;;;;;8.78;88.77246;95253.18;;;;
2021/09/04 03:15:13;;;;;;;8.899999;7.05;;;;;;;8.78;88.77246;95253.18;;;;
2021/09/04 03:16:14;;;;;;;8.899999;7.05;;;;;;;8.78;88.77246;95253.18;;;;
2021/09/04 03:17:14;;;;;;;8.899999;7.05;;;;;;;8.78;88.77246;95253.18;;;;
2021/09/04 03:18:15;;;;;;;8.899999;7.05;;;;;;;8.78;88.77246;95253.18;;;;
2021/09/04 03:19:15;;;;;;;8.899999;7.05;;;;;;;8.78;88.77246;95253.18;;;;
2021/09/04 03:20:16;;;;;;;8.899999;7.05;;;;;;;8.78;88.77246;95253.18;;;;
2021/09/04 03:21:17;;;;;;;8.899999;7.05;;;;;;;8.78;88.77246;95253.18;;;;
2021/09/04 03:22:18;;;;;;;8.899999;7.05;;;;;;;8.78;88.77246;95253.18;;;;
2021/09/04 03:23:18;;;;;;;8.899999;7.05;;;;;;;8.78;88.77246;95253.18;;;;
2021/09/04 03:24:19;;;;;;;8.899999;7.05;;;;;;;8.78;88.77246;95253.18;;;;
2021/09/04 03:25:19;;;;;;;9.9;7;;;;;;;8.76;88.73633;95249.5;;;;
2021/09/04 03:26:20;;;;;;;9.9;7;;;;;;;8.76;88.73633;95249.5;;;;
2021/09/04 03:27:21;;;;;;;9.9;7;;;;;;;8.76;88.73633;95249.5;;;;
2021/09/04 03:28:21;;;;;;;9.9;7;;;;;;;8.76;88.73633;95249.5;;;;
2021/09/04 03:29:22;;;;;;;9.9;7;;;;;;;8.76;88.73633;95249.5;;;;
2021/09/04 03:30:23;;;;;;;9.9;7;;;;;;;8.76;88.73633;95249.5;;;;
2021/09/04 03:31:23;;;;;;;9.9;7;;;;;;;8.76;88.73633;95249.5;;;;
2021/09/04 03:32:24;;;;;;;9.9;7;;;;;;;8.76;88.73633;95249.5;;;;
2021/09/04 03:33:25;;;;;;;9.9;7;;;;;;;8.76;88.73633;95249.5;;;;
2021/09/04 03:34:26;;;;;;;9.9;7;;;;;;;8.76;88.73633;95249.5;;;;
2021/09/04 03:35:26;;;;;;;10.25;7.3;;;;;;;8.7;88.61914;95255.27;;;;
2021/09/04 03:36:27;;;;;;;10.25;7.3;;;;;;;8.7;88.61914;95255.27;;;;
2021/09/04 03:37:27;;;;;;;10.25;7.3;;;;;;;8.7;88.61914;95255.27;;;;
2021/09/04 03:38:28;;;;;;;10.25;7.3;;;;;;;8.7;88.61914;95255.27;;;;
2021/09/04 03:39:28;;;;;;;10.25;7.3;;;;;;;8.7;88.61914;95255.27;;;;
2021/09/04 03:40:29;;;;;;;10.25;7.3;;;;;;;8.7;88.61914;95255.27;;;;
2021/09/04 03:41:29;;;;;;;10.25;7.3;;;;;;;8.7;88.61914;95255.27;;;;
2021/09/04 03:42:30;;;;;;;10.25;7.3;;;;;;;8.7;88.61914;95255.27;;;;
2021/09/04 03:43:31;;;;;;;10.25;7.3;;;;;;;8.7;88.61914;95255.27;;;;
2021/09/04 03:44:31;;;;;;;10.25;7.3;;;;;;;8.7;88.61914;95255.27;;;;
2021/09/04 03:45:32;;;;;;;10.25;7.3;;;;;;;8.7;88.61914;95255.27;;;;
2021/09/04 03:46:34;;;;;;;9.799999;7.45;;;;;;;8.61;88.61914;95251.73;;;;
2021/09/04 03:47:34;;;;;;;9.799999;7.45;;;;;;;8.61;88.61914;95251.73;;;;
2021/09/04 03:48:35;;;;;;;9.799999;7.45;;;;;;;8.61;88.61914;95251.73;;;;
2021/09/04 03:49:35;;;;;;;9.799999;7.45;;;;;;;8.61;88.61914;95251.73;;;;
2021/09/04 03:50:36;;;;;;;9.799999;7.45;;;;;;;8.61;88.61914;95251.73;;;;
2021/09/04 03:51:37;;;;;;;9.799999;7.45;;;;;;;8.61;88.61914;95251.73;;;;
2021/09/04 03:52:37;;;;;;;9.799999;7.45;;;;;;;8.61;88.61914;95251.73;;;;
2021/09/04 03:53:38;;;;;;;9.799999;7.45;;;;;;;8.61;88.61914;95251.73;;;;
2021/09/04 03:54:38;;;;;;;9.799999;7.45;;;;;;;8.61;88.61914;95251.73;;;;
2021/09/04 03:55:39;;;;;;;9.799999;7.45;;;;;;;8.61;88.61914;95251.73;;;;
2021/09/04 03:56:40;;;;;;;9;7.300001;;;;;;;8.44;88.85156;95259.99;;;;
2021/09/04 03:57:40;;;;;;;9;7.300001;;;;;;;8.44;88.85156;95259.99;;;;
2021/09/04 03:58:41;;;;;;;9;7.300001;;;;;;;8.44;88.85156;95259.99;;;;
2021/09/04 03:59:41;;;;;;;9;7.300001;;;;;;;8.44;88.85156;95259.99;;;;
2021/09/04 04:00:42;;;;;;;9;7.300001;;;;;;;8.44;88.85156;95259.99;;;;
2021/09/04 04:01:42;;;;;;;9;7.300001;;;;;;;8.44;88.85156;95259.99;;;;
2021/09/04 04:02:43;;;;;;;9;7.300001;;;;;;;8.44;88.85156;95259.99;;;;
2021/09/04 04:03:43;;;;;;;9;7.300001;;;;;;;8.44;88.85156;95259.99;;;;
2021/09/04 04:04:44;;;;;;;9;7.300001;;;;;;;8.44;88.85156;95259.99;;;;
2021/09/04 04:05:44;;;;;;;9;7.300001;;;;;;;8.44;88.85156;95259.99;;;;
2021/09/04 04:06:45;;;;;;;9;7.300001;;;;;;;8.44;88.85156;95259.99;;;;
2021/09/04 04:07:45;;;;;;;10.8;7.55;;;;;;;8.33;89.20996;95262.61;;;;
2021/09/04 04:08:45;;;;;;;10.8;7.55;;;;;;;8.33;89.20996;95262.61;;;;
2021/09/04 04:09:46;;;;;;;10.8;7.55;;;;;;;8.33;89.20996;95262.61;;;;
2021/09/04 04:10:46;;;;;;;10.8;7.55;;;;;;;8.33;89.20996;95262.61;;;;
2021/09/04 04:11:47;;;;;;;10.8;7.55;;;;;;;8.33;89.20996;95262.61;;;;
2021/09/04 04:12:47;;;;;;;10.8;7.55;;;;;;;8.33;89.20996;95262.61;;;;
2021/09/04 04:13:48;;;;;;;10.8;7.55;;;;;;;8.33;89.20996;95262.61;;;;
2021/09/04 04:14:49;;;;;;;10.8;7.55;;;;;;;8.33;89.20996;95262.61;;;;
2021/09/04 04:15:49;;;;;;;10.8;7.55;;;;;;;8.33;89.20996;95262.61;;;;
2021/09/04 04:16:50;;;;;;;10.8;7.55;;;;;;;8.33;89.20996;95262.61;;;;
2021/09/04 04:17:50;;;;;;;8.799999;7.55;;;;;;;8.27;89.47363;95261.63;;;;
2021/09/04 04:18:51;;;;;;;8.799999;7.55;;;;;;;8.27;89.47363;95261.63;;;;
2021/09/04 04:19:51;;;;;;;8.799999;7.55;;;;;;;8.27;89.47363;95261.63;;;;
2021/09/04 04:20:52;;;;;;;8.799999;7.55;;;;;;;8.27;89.47363;95261.63;;;;
2021/09/04 04:21:52;;;;;;;8.799999;7.55;;;;;;;8.27;89.47363;95261.63;;;;
2021/09/04 04:22:53;;;;;;;8.799999;7.55;;;;;;;8.27;89.47363;95261.63;;;;
2021/09/04 04:23:53;;;;;;;8.799999;7.55;;;;;;;8.27;89.47363;95261.63;;;;
2021/09/04 04:24:54;;;;;;;8.799999;7.55;;;;;;;8.27;89.47363;95261.63;;;;
2021/09/04 04:25:54;;;;;;;8.799999;7.55;;;;;;;8.27;89.47363;95261.63;;;;
2021/09/04 04:26:55;;;;;;;8.799999;7.55;;;;;;;8.27;89.47363;95261.63;;;;
2021/09/04 04:27:55;;;;;;;8.799999;7.55;;;;;;;8.27;89.47363;95261.63;;;;
2021/09/04 04:28:56;;;;;;;10.7;7.75;;;;;;;8.21;89.61035;95258.03;;;;
2021/09/04 04:29:56;;;;;;;10.7;7.75;;;;;;;8.21;89.61035;95258.03;;;;
2021/09/04 04:30:57;;;;;;;10.7;7.75;;;;;;;8.21;89.61035;95258.03;;;;
2021/09/04 04:31:57;;;;;;;10.7;7.75;;;;;;;8.21;89.61035;95258.03;;;;
2021/09/04 04:32:58;;;;;;;10.7;7.75;;;;;;;8.21;89.61035;95258.03;;;;
2021/09/04 04:33:58;;;;;;;10.7;7.75;;;;;;;8.21;89.61035;95258.03;;;;
2021/09/04 04:34:59;;;;;;;10.7;7.75;;;;;;;8.21;89.61035;95258.03;;;;
2021/09/04 04:36:00;;;;;;;10.7;7.75;;;;;;;8.21;89.61035;95258.03;;;;
2021/09/04 04:37:00;;;;;;;10.7;7.75;;;;;;;8.21;89.61035;95258.03;;;;
2021/09/04 04:38:01;;;;;;;10.7;7.75;;;;;;;8.21;89.61035;95258.03;;;;
2021/09/04 04:39:02;;;;;;;10.7;7.75;;;;;;;8.21;89.61035;95258.03;;;;
2021/09/04 04:40:03;;;;;;;10.55;7.500001;;;;;;;8.15;89.74512;95265.11;;;;
2021/09/04 04:41:05;;;;;;;10.55;7.500001;;;;;;;8.15;89.74512;95265.11;;;;
2021/09/04 04:42:05;;;;;;;10.55;7.500001;;;;;;;8.15;89.74512;95265.11;;;;
2021/09/04 04:43:06;;;;;;;10.55;7.500001;;;;;;;8.15;89.74512;95265.11;;;;
2021/09/04 04:44:07;;;;;;;10.55;7.500001;;;;;;;8.15;89.74512;95265.11;;;;
2021/09/04 04:45:07;;;;;;;10.55;7.500001;;;;;;;8.15;89.74512;95265.11;;;;
2021/09/04 04:46:08;;;;;;;10.55;7.500001;;;;;;;8.15;89.74512;95265.11;;;;
2021/09/04 04:47:09;;;;;;;10.55;7.500001;;;;;;;8.15;89.74512;95265.11;;;;
2021/09/04 04:48:09;;;;;;;10.55;7.500001;;;;;;;8.15;89.74512;95265.11;;;;
2021/09/04 04:49:10;;;;;;;10.55;7.500001;;;;;;;8.15;89.74512;95265.11;;;;
2021/09/04 04:50:10;;;;;;;11.35;8.700002;;;;;;;8.23;89.74023;95259.56;;;;
2021/09/04 04:51:11;;;;;;;11.35;8.700002;;;;;;;8.23;89.74023;95259.56;;;;
2021/09/04 04:52:12;;;;;;;11.35;8.700002;;;;;;;8.23;89.74023;95259.56;;;;
2021/09/04 04:53:12;;;;;;;11.35;8.700002;;;;;;;8.23;89.74023;95259.56;;;;
2021/09/04 04:54:13;;;;;;;11.35;8.700002;;;;;;;8.23;89.74023;95259.56;;;;
2021/09/04 04:55:13;;;;;;;11.35;8.700002;;;;;;;8.23;89.74023;95259.56;;;;
2021/09/04 04:56:14;;;;;;;11.35;8.700002;;;;;;;8.23;89.74023;95259.56;;;;
2021/09/04 04:57:15;;;;;;;11.35;8.700002;;;;;;;8.23;89.74023;95259.56;;;;
2021/09/04 04:58:15;;;;;;;11.35;8.700002;;;;;;;8.23;89.74023;95259.56;;;;
2021/09/04 04:59:16;;;;;;;11.35;8.700002;;;;;;;8.23;89.74023;95259.56;;;;
2021/09/04 05:00:16;;;;;;;11.35;8.700002;;;;;;;8.23;89.74023;95259.56;;;;
2021/09/04 05:01:18;;;;;;;10.1;8.099998;;;;;;;8.3;89.5752;95265.21;;;;
2021/09/04 05:02:18;;;;;;;10.1;8.099998;;;;;;;8.3;89.5752;95265.21;;;;
2021/09/04 05:03:19;;;;;;;10.1;8.099998;;;;;;;8.3;89.5752;95265.21;;;;
2021/09/04 05:04:19;;;;;;;10.1;8.099998;;;;;;;8.3;89.5752;95265.21;;;;
2021/09/04 05:05:20;;;;;;;10.1;8.099998;;;;;;;8.3;89.5752;95265.21;;;;
2021/09/04 05:06:20;;;;;;;10.1;8.099998;;;;;;;8.3;89.5752;95265.21;;;;
2021/09/04 05:07:21;;;;;;;10.1;8.099998;;;;;;;8.3;89.5752;95265.21;;;;
2021/09/04 05:08:22;;;;;;;10.1;8.099998;;;;;;;8.3;89.5752;95265.21;;;;
2021/09/04 05:09:22;;;;;;;10.1;8.099998;;;;;;;8.3;89.5752;95265.21;;;;
2021/09/04 05:10:23;;;;;;;10.1;8.099998;;;;;;;8.3;89.5752;95265.21;;;;
2021/09/04 05:11:23;;;;;;;11.3;8.349998;;;;;;;8.43;89.70996;95262.81;;;;
2021/09/04 05:12:24;;;;;;;11.3;8.349998;;;;;;;8.43;89.70996;95262.81;;;;
2021/09/04 05:13:24;;;;;;;11.3;8.349998;;;;;;;8.43;89.70996;95262.81;;;;
2021/09/04 05:14:26;;;;;;;11.3;8.349998;;;;;;;8.43;89.70996;95262.81;;;;
2021/09/04 05:15:26;;;;;;;11.3;8.349998;;;;;;;8.43;89.70996;95262.81;;;;
2021/09/04 05:16:27;;;;;;;11.3;8.349998;;;;;;;8.43;89.70996;95262.81;;;;
2021/09/04 05:17:28;;;;;;;11.3;8.349998;;;;;;;8.43;89.70996;95262.81;;;;
2021/09/04 05:18:28;;;;;;;11.3;8.349998;;;;;;;8.43;89.70996;95262.81;;;;
2021/09/04 05:19:30;;;;;;;11.3;8.349998;;;;;;;8.43;89.70996;95262.81;;;;
2021/09/04 05:20:30;;;;;;;11.3;8.349998;;;;;;;8.43;89.70996;95262.81;;;;
2021/09/04 05:21:31;;;;;;;11.3;8.349998;;;;;;;8.43;89.70996;95262.81;;;;
2021/09/04 05:22:32;;;;;;;11.95;8.649999;;;;;;;8.54;89.96289;95266.21;;;;
2021/09/04 05:23:33;;;;;;;11.95;8.649999;;;;;;;8.54;89.96289;95266.21;;;;
2021/09/04 05:24:33;;;;;;;11.95;8.649999;;;;;;;8.54;89.96289;95266.21;;;;
2021/09/04 05:25:34;;;;;;;11.95;8.649999;;;;;;;8.54;89.96289;95266.21;;;;
2021/09/04 05:26:34;;;;;;;11.95;8.649999;;;;;;;8.54;89.96289;95266.21;;;;
2021/09/04 05:27:35;;;;;;;11.95;8.649999;;;;;;;8.54;89.96289;95266.21;;;;
2021/09/04 05:28:37;;;;;;;11.95;8.649999;;;;;;;8.54;89.96289;95266.21;;;;
2021/09/04 05:29:37;;;;;;;11.95;8.649999;;;;;;;8.54;89.96289;95266.21;;;;
2021/09/04 05:30:38;;;;;;;11.95;8.649999;;;;;;;8.54;89.96289;95266.21;;;;
2021/09/04 05:31:38;;;;;;;11.95;8.649999;;;;;;;8.54;89.96289;95266.21;;;;
2021/09/04 05:32:39;;;;;;;11.45;9.099999;;;;;;;8.79;90.15332;95271.41;;;;
2021/09/04 05:33:39;;;;;;;11.45;9.099999;;;;;;;8.79;90.15332;95271.41;;;;
2021/09/04 05:34:40;;;;;;;11.45;9.099999;;;;;;;8.79;90.15332;95271.41;;;;
2021/09/04 05:35:42;;;;;;;11.45;9.099999;;;;;;;8.79;90.15332;95271.41;;;;
2021/09/04 05:36:42;;;;;;;11.45;9.099999;;;;;;;8.79;90.15332;95271.41;;;;
2021/09/04 05:37:43;;;;;;;11.45;9.099999;;;;;;;8.79;90.15332;95271.41;;;;